ブラザヴィル の空港の天気 - METARとTAF

ブラザビル/マヤマヤ空港 ( FCBB / BZV ) - コンゴ共和国 ブラザヴィル
飛行場実況気象(Metar)
観測時間07/19 04:00 WAT (07/19 03:00 UTC)
風向・風速南西 2m/s
視程6000m
天気現象
なし
気温21℃
湿度88%
気圧1014hPa
METARFCBB 190300Z 22004KT 6000 NSC 21/19 Q1014 NOSIG
過去の天気等 Google飛行場航空写真 Wunderground天気予報

過去48時間のMETAR

飛行場予報(TAF)
発表時間: 7/19 00:00 WAT (7/18 23:00 UTC)
予報対象時間: 19日1時 WAT ~ 20日7時 WAT
風向・風速西 2m/s
視程6000m
全天の4割程度の雲 雲底高度 550m
19日6時 WAT から 確率 30% で
視程3000m
天気現象もや
TAF FCBB 182300Z 1900/2006 26004KT 6000 SCT018
PROB30 1905/1909 3000 BR